Peculiar, Missouri
Current Conditions -  °F | °C
As of 5:53 AM on Monday 24 Nov 2014 (Local Time) from KOJC Reporting Station
Clear Clear  
Wind Chill: 24°   Ceiling: Unl
Heat Index: 33°   Visibility: 10mi
Dew Point: 23°   Wind: 12mph
Humidity: 66%   Direction: 300°WNW
Pressure: 29.62"   Gusts: 25mph
Location:  38.72°N, 94.46°W
Report Text: KOJC 241153Z AUTO 30010G22KT 10SM CLR 01/M05 A2962 RMK AO2 SLP034 70023 T00061050 10050 20006 51016
Loading
Personal Weather Stations






























Interactive Weather Map New forecast layout! Learn more

10-Day Weather Forecast

Advertisements
Track Severe Weather on mobile